Terminal Aerodrome Forecast
Issued by NWS

Home | Current Version | Previous Version | Text Only | Print | Product List | Glossary On
Versions: 1 2 3 4 5 6 7 8 9 10 11 12 13 14
000
FTUS44 KLIX 170520
TAFHDC
TAF
KHDC 170520Z 1706/1806 00000KT P6SM FEW035
     FM171200 00000KT P6SM BKN030
     FM171500 24006KT P6SM SCT040=

USA.gov is the U.S. government's official web portal to all federal, state and local government web resources and services.